Time;durP1;ratioP1;P1;durP2;ratioP2;P2;SDS_P1;SDS_P2;PMS_P1;PMS_P2;Temp;Humidity;BMP_temperature;BMP_pressure;BME280_temperature;BME280_humidity;BME280_pressure;Samples;Min_cycle;Max_cycle;Signal;HPM_P1;HPM_P2
2021/10/23 00:01:08;;;;;;;2.72;0.60;;;4.90;99.90;;;;;;5075298;28;20054;-77
2021/10/23 00:03:33;;;;;;;1.92;0.30;;;4.90;99.90;;;;;;5074547;28;20095;-76
2021/10/23 00:05:59;;;;;;;2.58;0.30;;;4.90;99.90;;;;;;5079278;28;20024;-77
2021/10/23 00:08:24;;;;;;;6.28;1.05;;;5.00;99.90;;;;;;5097270;28;20055;-77
2021/10/23 00:10:50;;;;;;;4.60;0.60;;;5.00;99.90;;;;;;5096715;28;20028;-77
2021/10/23 00:13:15;;;;;;;3.80;0.80;;;5.00;99.90;;;;;;5078419;28;20020;-77
2021/10/23 00:15:41;;;;;;;4.47;0.55;;;5.10;99.90;;;;;;5096500;28;20496;-77
2021/10/23 00:18:07;;;;;;;5.72;0.85;;;5.10;99.90;;;;;;5083234;28;20111;-77
2021/10/23 00:20:33;;;;;;;7.75;0.60;;;5.10;99.90;;;;;;5095226;28;20426;-77
2021/10/23 00:22:58;;;;;;;6.30;0.47;;;5.10;99.90;;;;;;5095217;28;20028;-77
2021/10/23 00:25:24;;;;;;;2.92;0.28;;;5.20;99.90;;;;;;5094892;28;20044;-77
2021/10/23 00:27:49;;;;;;;3.50;1.08;;;5.20;99.90;;;;;;5095083;28;20047;-77
2021/10/23 00:30:18;;;;;;;7.00;1.00;;;5.20;99.90;;;;;;5095045;28;20077;-77
2021/10/23 00:32:43;;;;;;;3.83;0.32;;;5.30;99.90;;;;;;5096243;28;20468;-77
2021/10/23 00:35:10;;;;;;;4.18;0.32;;;5.30;99.90;;;;;;5095739;28;20035;-77
2021/10/23 00:37:37;;;;;;;2.13;0.63;;;5.30;99.90;;;;;;5077923;28;20134;-77
2021/10/23 00:40:04;;;;;;;3.03;0.25;;;5.20;99.90;;;;;;5078041;28;20024;-77
2021/10/23 00:42:29;;;;;;;0.93;0.10;;;5.20;99.90;;;;;;5095984;28;20024;-77
2021/10/23 00:44:55;;;;;;;2.58;0.30;;;5.20;99.90;;;;;;5077862;28;20496;-77
2021/10/23 00:47:21;;;;;;;1.90;0.10;;;5.10;99.90;;;;;;5095951;28;20077;-77
2021/10/23 00:49:52;;;;;;;1.85;0.20;;;5.10;99.90;;;;;;5095948;28;20447;-77
2021/10/23 00:52:20;;;;;;;4.60;0.30;;;5.00;99.90;;;;;;5095792;28;20020;-77
2021/10/23 00:54:46;;;;;;;5.03;0.30;;;5.00;99.90;;;;;;5077385;28;20477;-77
2021/10/23 00:57:11;;;;;;;2.55;0.17;;;4.90;99.90;;;;;;5077642;28;20016;-77
2021/10/23 00:59:37;;;;;;;4.38;0.35;;;4.90;99.90;;;;;;5077522;28;20028;-77
2021/10/23 01:02:03;;;;;;;5.95;0.22;;;4.90;99.90;;;;;;5095895;28;20373;-77
2021/10/23 01:04:29;;;;;;;3.30;0.17;;;4.90;99.90;;;;;;5095628;28;20032;-77
2021/10/23 01:06:55;;;;;;;4.45;0.20;;;4.80;99.90;;;;;;5092533;28;20504;-77
2021/10/23 01:09:22;;;;;;;5.60;0.63;;;4.80;99.90;;;;;;5095514;28;20477;-77
2021/10/23 01:11:48;;;;;;;1.92;0.52;;;4.90;99.90;;;;;;5094287;28;20032;-76
2021/10/23 01:14:19;;;;;;;9.18;1.00;;;4.90;99.90;;;;;;5095663;28;20016;-77
2021/10/23 01:16:47;;;;;;;5.53;0.20;;;4.90;99.90;;;;;;5094898;28;20027;-77
2021/10/23 01:19:13;;;;;;;5.37;0.27;;;4.90;99.90;;;;;;5094188;28;20083;-77
2021/10/23 01:21:40;;;;;;;6.10;1.00;;;5.00;99.90;;;;;;5087330;28;20313;-77
2021/10/23 01:24:07;;;;;;;5.25;0.10;;;5.00;99.90;;;;;;5077053;28;20032;-77
2021/10/23 01:26:34;;;;;;;2.83;0.20;;;4.90;99.90;;;;;;5094889;28;20039;-77
2021/10/23 01:29:00;;;;;;;0.98;0.10;;;4.90;99.90;;;;;;5095190;28;20028;-77
2021/10/23 01:31:29;;;;;;;4.88;0.95;;;4.90;99.90;;;;;;5076812;28;20020;-77
2021/10/23 01:33:57;;;;;;;3.45;0.38;;;4.90;99.90;;;;;;5094925;28;20426;-77
2021/10/23 01:36:23;;;;;;;2.05;0.40;;;4.90;99.90;;;;;;5094658;28;20016;-76
2021/10/23 01:38:48;;;;;;;3.00;0.25;;;4.90;99.90;;;;;;5094910;28;20024;-77
2021/10/23 01:41:15;;;;;;;3.10;0.52;;;4.80;99.90;;;;;;5076744;28;20022;-77
2021/10/23 01:43:41;;;;;;;2.95;0.00;;;4.80;99.90;;;;;;5094725;28;20091;-76
2021/10/23 01:46:07;;;;;;;3.72;0.10;;;4.70;99.90;;;;;;5094820;28;20052;-76
2021/10/23 01:48:36;;;;;;;3.58;0.10;;;4.70;99.90;;;;;;5076638;28;20473;-76
2021/10/23 01:51:03;;;;;;;1.30;0.00;;;4.60;99.90;;;;;;5076387;28;20016;-76
2021/10/23 01:53:32;;;;;;;2.75;0.30;;;4.60;99.90;;;;;;5094430;28;20043;-77
2021/10/23 01:55:59;;;;;;;2.88;0.20;;;4.60;99.90;;;;;;5093468;28;20028;-77
2021/10/23 01:58:24;;;;;;;5.97;0.10;;;4.60;99.90;;;;;;5094560;28;20020;-77
2021/10/23 02:00:50;;;;;;;2.80;0.35;;;4.50;99.90;;;;;;5094668;28;20031;-77
2021/10/23 02:03:15;;;;;;;2.05;0.10;;;4.50;99.90;;;;;;5095189;28;20020;-76
2021/10/23 02:05:41;;;;;;;3.00;0.22;;;4.50;99.90;;;;;;5093916;28;20148;-76
2021/10/23 02:08:07;;;;;;;1.98;0.00;;;4.50;99.90;;;;;;5095003;28;20031;-77
2021/10/23 02:10:32;;;;;;;1.60;0.10;;;4.50;99.90;;;;;;5095030;28;20024;-76
2021/10/23 02:12:59;;;;;;;2.60;0.15;;;4.50;99.90;;;;;;5094164;28;20046;-77
2021/10/23 02:15:24;;;;;;;6.07;0.00;;;4.50;99.90;;;;;;5094034;28;20059;-76
2021/10/23 02:17:50;;;;;;;5.30;0.10;;;4.50;99.90;;;;;;5093916;28;20016;-77
2021/10/23 02:20:15;;;;;;;5.20;0.75;;;4.40;99.90;;;;;;5092575;28;20028;-77
2021/10/23 02:22:41;;;;;;;2.25;0.08;;;4.40;99.90;;;;;;5094633;28;20020;-77
2021/10/23 02:25:10;;;;;;;5.88;1.00;;;4.40;99.90;;;;;;5093915;28;20115;-77
2021/10/23 02:27:36;;;;;;;;;;;4.30;99.90;;;;;;5093531;28;20024;-76
2021/10/23 02:30:03;;;;;;;4.35;0.20;;;4.30;99.90;;;;;;5093934;28;19927;-77
2021/10/23 02:32:29;;;;;;;4.93;0.13;;;4.30;99.90;;;;;;5093937;28;20031;-77
2021/10/23 02:34:55;;;;;;;7.75;1.75;;;4.30;99.90;;;;;;5090683;28;20019;-77
2021/10/23 02:37:20;;;;;;;4.00;0.20;;;4.20;99.90;;;;;;5093892;28;20105;-77
2021/10/23 02:39:46;;;;;;;3.40;0.60;;;4.20;99.90;;;;;;5092589;28;20385;-77
2021/10/23 02:42:11;;;;;;;4.25;0.60;;;4.20;99.90;;;;;;5093780;28;20423;-76
2021/10/23 02:44:37;;;;;;;6.05;0.10;;;4.20;99.90;;;;;;5094311;28;20071;-76
2021/10/23 02:47:02;;;;;;;1.45;0.10;;;4.20;99.90;;;;;;5094011;28;20111;-76
2021/10/23 02:49:28;;;;;;;2.65;0.80;;;4.20;99.90;;;;;;5090317;28;20026;-77
2021/10/23 02:51:53;;;;;;;3.53;0.65;;;4.10;99.90;;;;;;5093687;28;20066;-76
2021/10/23 02:54:19;;;;;;;6.95;0.20;;;4.10;99.90;;;;;;5075245;28;20026;-77
2021/10/23 02:56:45;;;;;;;2.55;0.22;;;4.00;99.90;;;;;;5093851;28;20031;-77
2021/10/23 02:59:11;;;;;;;3.72;0.30;;;4.00;99.90;;;;;;5093568;28;20468;-76
2021/10/23 03:01:37;;;;;;;4.78;0.10;;;3.90;99.90;;;;;;5075382;28;20051;-77
2021/10/23 03:04:02;;;;;;;1.75;0.10;;;3.90;99.90;;;;;;5075380;28;20465;-77
2021/10/23 03:06:28;;;;;;;1.60;0.20;;;3.90;99.90;;;;;;5093415;28;20040;-77
2021/10/23 03:08:54;;;;;;;1.38;0.10;;;3.80;99.90;;;;;;5075687;28;20461;-77
2021/10/23 03:11:19;;;;;;;0.45;0.00;;;3.80;99.90;;;;;;5093448;28;20473;-77
2021/10/23 03:13:45;;;;;;;1.55;0.00;;;3.70;99.90;;;;;;5075189;28;20388;-77
2021/10/23 03:16:11;;;;;;;5.15;0.20;;;3.70;99.90;;;;;;5075280;28;20020;-77
2021/10/23 03:18:37;;;;;;;1.35;0.10;;;3.60;99.90;;;;;;5075344;28;20423;-77
2021/10/23 03:21:03;;;;;;;2.17;0.05;;;3.60;99.90;;;;;;5093018;28;20473;-78
2021/10/23 03:23:29;;;;;;;2.22;0.00;;;3.60;99.90;;;;;;5093067;28;20034;-78
2021/10/23 03:25:54;;;;;;;0.75;0.20;;;3.60;99.90;;;;;;5093692;28;20050;-78
2021/10/23 03:28:20;;;;;;;3.28;0.30;;;3.60;99.90;;;;;;5093847;28;20035;-78
2021/10/23 03:30:46;;;;;;;3.65;0.40;;;3.50;99.90;;;;;;5093510;28;20028;-78
2021/10/23 03:33:11;;;;;;;1.13;0.40;;;3.50;99.90;;;;;;5093840;28;20024;-78
2021/10/23 03:35:37;;;;;;;2.17;0.10;;;3.40;99.90;;;;;;5075294;28;20055;-78
2021/10/23 03:38:03;;;;;;;0.35;0.00;;;3.40;99.90;;;;;;5092976;28;20032;-78
2021/10/23 03:40:28;;;;;;;1.75;0.00;;;3.40;99.90;;;;;;5096730;28;20016;-78
2021/10/23 03:42:54;;;;;;;0.77;0.00;;;3.50;99.90;;;;;;5078889;28;20043;-77
2021/10/23 03:45:19;;;;;;;1.88;0.00;;;3.40;99.90;;;;;;5097100;28;20039;-77
2021/10/23 03:47:45;;;;;;;1.42;0.00;;;3.40;99.90;;;;;;5097528;28;20020;-77
2021/10/23 03:50:11;;;;;;;4.65;0.10;;;3.40;99.90;;;;;;5078637;28;20031;-78
2021/10/23 03:52:37;;;;;;;0.52;0.25;;;3.30;99.90;;;;;;5097748;28;20078;-77
2021/10/23 03:55:03;;;;;;;0.28;0.00;;;3.30;99.90;;;;;;5097153;28;20028;-77
2021/10/23 03:57:29;;;;;;;3.30;0.20;;;3.30;99.90;;;;;;5097186;28;20033;-77
2021/10/23 03:59:54;;;;;;;0.75;0.05;;;3.30;99.90;;;;;;5095646;28;20016;-77
2021/10/23 04:02:20;;;;;;;1.23;0.20;;;3.30;99.90;;;;;;5097020;28;20012;-77
2021/10/23 04:04:45;;;;;;;1.98;0.00;;;3.30;99.90;;;;;;5088149;28;20036;-77
2021/10/23 04:07:11;;;;;;;2.28;0.00;;;3.30;99.90;;;;;;5078569;28;20020;-77
2021/10/23 04:09:37;;;;;;;0.98;0.00;;;3.30;99.90;;;;;;5097130;28;20481;-77
2021/10/23 04:12:02;;;;;;;2.58;0.73;;;3.30;99.90;;;;;;5096615;28;20380;-77
2021/10/23 04:14:28;;;;;;;1.17;0.22;;;3.20;99.90;;;;;;5078609;28;20024;-77
2021/10/23 04:16:54;;;;;;;0.80;0.10;;;3.10;99.90;;;;;;5096687;28;20024;-77
2021/10/23 04:19:19;;;;;;;7.65;0.00;;;3.00;99.90;;;;;;5096237;28;20036;-77
2021/10/23 04:21:45;;;;;;;4.70;0.40;;;3.10;99.90;;;;;;5097131;28;20111;-77
2021/10/23 04:24:10;;;;;;;2.75;0.57;;;3.10;99.90;;;;;;5096569;28;20094;-77
2021/10/23 04:26:37;;;;;;;2.72;0.00;;;3.10;99.90;;;;;;5095176;28;20032;-78
2021/10/23 04:29:03;;;;;;;1.80;0.00;;;3.10;99.90;;;;;;5096491;28;20020;-78
2021/10/23 04:31:29;;;;;;;1.92;0.00;;;3.10;99.90;;;;;;5096721;28;20056;-75
2021/10/23 04:33:55;;;;;;;1.58;0.00;;;3.10;99.90;;;;;;5096147;28;20035;-76
2021/10/23 04:36:20;;;;;;;4.45;0.00;;;3.10;99.90;;;;;;5096563;28;20062;-77
2021/10/23 04:38:46;;;;;;;1.83;0.20;;;3.10;99.90;;;;;;5096824;28;20081;-77
2021/10/23 04:41:12;;;;;;;0.40;0.00;;;3.10;99.90;;;;;;5096129;28;20020;-76
2021/10/23 04:43:37;;;;;;;2.28;0.00;;;3.10;99.90;;;;;;5078013;28;20027;-77
2021/10/23 04:46:03;;;;;;;1.52;0.43;;;3.10;99.90;;;;;;5096843;28;20028;-77
2021/10/23 04:48:28;;;;;;;1.75;0.08;;;3.10;99.90;;;;;;5096200;28;20108;-77
2021/10/23 04:50:54;;;;;;;1.30;0.00;;;3.00;99.90;;;;;;5093581;28;20031;-77
2021/10/23 04:53:20;;;;;;;2.42;0.00;;;3.00;99.90;;;;;;5095888;28;20501;-75
2021/10/23 04:55:45;;;;;;;5.25;0.38;;;2.90;99.90;;;;;;5094742;28;20048;-75
2021/10/23 04:58:11;;;;;;;3.63;0.47;;;2.90;99.90;;;;;;5095739;28;20034;-75
2021/10/23 05:00:37;;;;;;;0.65;0.00;;;2.90;99.90;;;;;;5096165;28;20384;-75
2021/10/23 05:03:06;;;;;;;5.93;1.00;;;2.90;99.90;;;;;;5078121;28;20059;-75
2021/10/23 05:05:31;;;;;;;7.53;0.63;;;2.90;99.90;;;;;;5091129;28;20028;-75
2021/10/23 05:07:57;;;;;;;1.80;0.13;;;2.90;99.90;;;;;;5094692;28;20575;-75
2021/10/23 05:10:22;;;;;;;2.65;0.10;;;2.90;99.90;;;;;;5095849;28;20028;-75
2021/10/23 05:12:48;;;;;;;2.80;0.00;;;2.90;99.90;;;;;;5094638;28;20024;-75
2021/10/23 05:15:14;;;;;;;0.30;0.20;;;2.80;99.90;;;;;;5095648;28;20032;-75
2021/10/23 05:17:39;;;;;;;0.43;0.00;;;2.80;99.90;;;;;;5092842;28;20401;-75
2021/10/23 05:20:06;;;;;;;0.85;0.25;;;2.80;99.90;;;;;;5096115;28;20123;-75
2021/10/23 05:22:32;;;;;;;4.85;0.75;;;2.70;99.90;;;;;;5095952;28;20024;-75
2021/10/23 05:24:57;;;;;;;2.83;0.20;;;2.70;99.90;;;;;;5095363;28;20404;-75
2021/10/23 05:27:23;;;;;;;1.17;0.00;;;2.70;99.90;;;;;;5077525;28;20024;-75
2021/10/23 05:29:49;;;;;;;2.17;0.20;;;2.70;99.90;;;;;;5077378;28;20047;-75
2021/10/23 05:32:14;;;;;;;0.50;0.00;;;2.70;99.90;;;;;;5095502;28;20024;-75
2021/10/23 05:34:40;;;;;;;1.80;0.03;;;2.80;99.90;;;;;;5095219;28;20032;-75
2021/10/23 05:37:05;;;;;;;1.25;0.10;;;2.70;99.90;;;;;;5094131;28;20035;-75
2021/10/23 05:39:31;;;;;;;2.22;0.00;;;2.70;99.90;;;;;;5095379;28;20027;-75
2021/10/23 05:41:57;;;;;;;0.95;0.15;;;2.70;99.90;;;;;;5094115;28;20114;-75
2021/10/23 05:44:23;;;;;;;1.58;0.32;;;2.70;99.90;;;;;;5093976;28;20023;-74
2021/10/23 05:46:49;;;;;;;1.23;0.10;;;2.70;99.90;;;;;;5095198;28;20081;-74
2021/10/23 05:49:14;;;;;;;5.57;0.10;;;2.80;99.90;;;;;;5095055;28;20358;-73
2021/10/23 05:51:40;;;;;;;2.30;0.20;;;2.90;99.90;;;;;;5094969;28;20038;-74
2021/10/23 05:54:06;;;;;;;2.65;0.43;;;3.00;99.90;;;;;;5093649;28;20020;-74
2021/10/23 05:56:31;;;;;;;1.75;0.10;;;3.00;99.90;;;;;;5094861;28;20039;-74
2021/10/23 05:59:10;;;;;;;0.82;0.10;;;3.00;99.90;;;;;;5094532;28;20093;-74
2021/10/23 06:01:36;;;;;;;3.92;0.13;;;3.10;99.90;;;;;;5095283;28;20020;-75
2021/10/23 06:04:02;;;;;;;2.95;0.28;;;3.10;99.90;;;;;;5094901;28;20024;-74
2021/10/23 06:06:27;;;;;;;3.85;0.35;;;3.10;99.90;;;;;;5095436;28;20473;-74
2021/10/23 06:08:54;;;;;;;5.13;0.35;;;3.20;99.90;;;;;;5095320;28;20016;-74
2021/10/23 06:11:20;;;;;;;1.58;0.13;;;3.20;99.90;;;;;;5076319;28;20027;-74
2021/10/23 06:13:47;;;;;;;1.58;0.10;;;3.30;99.90;;;;;;5094923;28;20016;-75
2021/10/23 06:16:13;;;;;;;6.75;0.80;;;3.30;99.90;;;;;;5076907;28;20012;-75
2021/10/23 06:18:38;;;;;;;3.45;0.50;;;3.40;99.90;;;;;;5094902;28;20479;-75
2021/10/23 06:21:04;;;;;;;3.40;1.20;;;3.50;99.90;;;;;;5094502;28;20020;-75
2021/10/23 06:23:32;;;;;;;3.00;0.17;;;3.50;99.90;;;;;;5095016;28;20066;-75
2021/10/23 06:26:00;;;;;;;4.07;0.93;;;3.50;99.90;;;;;;5094690;28;20378;-74
2021/10/23 06:28:26;;;;;;;4.45;0.55;;;3.60;99.90;;;;;;5094529;28;20055;-74
2021/10/23 06:30:51;;;;;;;5.22;0.55;;;3.70;99.90;;;;;;5093413;28;20028;-75
2021/10/23 06:33:20;;;;;;;1.35;0.20;;;3.70;99.90;;;;;;5093477;28;20388;-75
2021/10/23 06:35:46;;;;;;;;;;;3.80;99.90;;;;;;5093615;28;20389;-76
2021/10/23 06:38:13;;;;;;;7.88;1.58;;;3.90;99.90;;;;;;5094949;28;19930;-76
2021/10/23 06:40:39;;;;;;;8.93;1.92;;;4.00;99.90;;;;;;5094255;28;20022;-76
2021/10/23 06:43:05;;;;;;;7.82;1.58;;;4.00;99.90;;;;;;5093714;28;20024;-76
2021/10/23 06:45:30;;;;;;;5.55;1.23;;;4.10;99.90;;;;;;5076422;28;20031;-76
2021/10/23 06:47:57;;;;;;;5.63;1.02;;;4.10;99.90;;;;;;5075846;28;20116;-76
2021/10/23 06:50:23;;;;;;;8.82;1.30;;;4.30;99.90;;;;;;5075991;28;20062;-76
2021/10/23 06:52:49;;;;;;;5.60;1.83;;;4.30;99.90;;;;;;5094004;28;20028;-76
2021/10/23 06:55:15;;;;;;;8.40;0.77;;;4.40;99.90;;;;;;5075878;28;20090;-77
2021/10/23 06:57:41;;;;;;;4.05;0.52;;;4.50;99.90;;;;;;5075826;28;20027;-77
2021/10/23 07:00:08;;;;;;;5.93;0.68;;;4.60;99.90;;;;;;5093834;28;20524;-77
2021/10/23 07:02:41;;;;;;;3.10;0.77;;;4.70;99.90;;;;;;5092362;28;20016;-78
2021/10/23 07:05:15;;;;;;;4.93;0.63;;;4.80;99.90;;;;;;5092304;28;20081;-78
2021/10/23 07:07:41;;;;;;;2.83;0.70;;;4.80;99.90;;;;;;5092403;28;20023;-78
2021/10/23 07:10:08;;;;;;;4.38;0.65;;;4.90;99.90;;;;;;5093813;28;20024;-78
2021/10/23 07:12:33;;;;;;;3.22;0.47;;;5.00;99.90;;;;;;5093871;28;20106;-78
2021/10/23 07:14:59;;;;;;;1.20;0.38;;;5.00;99.90;;;;;;5084329;28;20112;-78
2021/10/23 07:17:25;;;;;;;2.33;0.85;;;5.10;99.90;;;;;;5079723;28;20016;-78
2021/10/23 07:19:52;;;;;;;7.22;0.40;;;5.20;99.90;;;;;;5083140;28;20024;-79
2021/10/23 07:22:18;;;;;;;1.98;0.52;;;5.30;99.90;;;;;;5096329;28;20489;-78
2021/10/23 07:24:43;;;;;;;7.50;1.45;;;5.40;99.90;;;;;;5097698;28;20035;-76
2021/10/23 07:27:09;;;;;;;9.77;1.83;;;5.50;99.90;;;;;;5097886;28;20469;-76
2021/10/23 07:29:34;;;;;;;4.00;0.95;;;5.60;99.90;;;;;;5096170;28;20027;-76
2021/10/23 07:32:00;;;;;;;2.50;0.93;;;5.80;99.90;;;;;;5083595;28;20020;-76
2021/10/23 07:34:25;;;;;;;2.58;0.88;;;5.90;99.90;;;;;;5078968;28;20024;-76
2021/10/23 07:36:51;;;;;;;5.25;1.38;;;6.00;99.90;;;;;;5079107;28;20030;-76
2021/10/23 07:39:17;;;;;;;2.50;0.77;;;6.10;99.90;;;;;;5097213;28;20083;-76
2021/10/23 07:41:42;;;;;;;4.15;1.05;;;6.20;99.90;;;;;;5097089;28;20028;-76
2021/10/23 07:44:12;;;;;;;4.13;1.35;;;6.30;99.90;;;;;;5096747;28;20027;-76
2021/10/23 07:46:38;;;;;;;5.15;1.30;;;6.40;99.90;;;;;;5095667;28;20472;-76
2021/10/23 07:49:06;;;;;;;4.90;1.02;;;6.50;99.90;;;;;;5096911;28;20051;-76
2021/10/23 07:51:33;;;;;;;7.43;1.10;;;6.60;99.90;;;;;;5097396;28;20104;-76
2021/10/23 07:53:59;;;;;;;3.90;1.10;;;6.60;99.90;;;;;;5097017;28;20020;-76
2021/10/23 07:56:24;;;;;;;6.78;1.13;;;6.70;99.90;;;;;;5097041;28;20103;-76
2021/10/23 07:58:50;;;;;;;4.18;0.90;;;6.70;99.90;;;;;;5095391;28;20020;-76
2021/10/23 08:01:16;;;;;;;8.50;1.08;;;6.70;99.90;;;;;;5095369;28;20031;-76
2021/10/23 08:03:42;;;;;;;7.80;2.58;;;6.80;99.90;;;;;;5096531;28;20023;-76
2021/10/23 08:06:07;;;;;;;8.45;1.38;;;6.80;99.90;;;;;;5096589;28;20036;-76
2021/10/23 08:08:34;;;;;;;4.88;1.33;;;6.80;99.90;;;;;;5078431;28;20161;-78
2021/10/23 08:11:01;;;;;;;6.78;1.88;;;6.90;99.90;;;;;;5097184;28;20031;-78
2021/10/23 08:13:27;;;;;;;5.45;1.85;;;6.90;99.90;;;;;;5096905;28;20021;-78
2021/10/23 08:15:53;;;;;;;4.68;1.77;;;7.00;99.90;;;;;;5078197;28;20034;-78
2021/10/23 08:18:19;;;;;;;6.60;2.20;;;7.10;99.90;;;;;;5096389;28;20091;-78
2021/10/23 08:20:45;;;;;;;7.50;2.65;;;7.20;99.90;;;;;;5078361;28;20024;-78
2021/10/23 08:23:11;;;;;;;11.48;2.53;;;7.30;99.90;;;;;;5096290;28;20095;-78
2021/10/23 08:25:37;;;;;;;5.10;2.00;;;7.40;99.90;;;;;;5096220;28;20067;-78
2021/10/23 08:28:03;;;;;;;14.27;3.10;;;7.60;99.90;;;;;;5094892;28;20396;-78
2021/10/23 08:30:29;;;;;;;7.40;2.70;;;7.70;99.90;;;;;;5094935;28;20389;-78
2021/10/23 08:32:55;;;;;;;6.82;2.55;;;7.70;99.90;;;;;;5094663;28;20020;-78
2021/10/23 08:35:21;;;;;;;8.98;3.08;;;7.80;99.90;;;;;;5096026;28;20024;-78
2021/10/23 08:37:50;;;;;;;6.75;3.10;;;7.90;99.90;;;;;;5094946;28;20031;-78
2021/10/23 08:40:16;;;;;;;7.15;2.63;;;7.90;99.90;;;;;;5094925;28;20024;-77
2021/10/23 08:42:43;;;;;;;6.45;2.70;;;8.00;99.90;;;;;;5094870;28;20523;-79
2021/10/23 08:45:10;;;;;;;8.32;2.92;;;8.00;99.90;;;;;;5096361;28;20149;-78
2021/10/23 08:47:37;;;;;;;13.45;3.50;;;8.10;99.90;;;;;;5095885;28;20024;-78
2021/10/23 08:50:08;;;;;;;12.60;3.50;;;8.10;99.90;;;;;;5109231;22;20093;-78
2021/10/23 08:52:33;;;;;;;9.60;3.58;;;8.20;99.90;;;;;;5095555;28;20456;-79
2021/10/23 08:54:59;;;;;;;10.30;3.33;;;8.30;99.90;;;;;;5094202;28;20124;-76
2021/10/23 08:57:28;;;;;;;11.20;4.68;;;8.40;99.90;;;;;;5095735;28;20499;-79
2021/10/23 08:59:55;;;;;;;8.07;3.22;;;8.50;99.90;;;;;;5096454;28;20017;-81
2021/10/23 09:02:23;;;;;;;12.23;4.43;;;8.50;99.90;;;;;;5095208;28;20020;-79
2021/10/23 09:04:50;;;;;;;14.30;4.32;;;8.70;99.90;;;;;;5094281;28;20028;-78
2021/10/23 09:07:16;;;;;;;11.00;4.38;;;8.80;99.90;;;;;;5095998;28;20099;-79
2021/10/23 09:09:53;;;;;;;14.77;5.45;;;8.90;99.90;;;;;;5096112;28;20024;-79
2021/10/23 09:12:21;;;;;;;16.35;5.15;;;8.90;99.90;;;;;;5095789;28;20070;-80
2021/10/23 09:14:48;;;;;;;18.38;5.55;;;8.90;99.90;;;;;;5094469;28;20115;-80
2021/10/23 09:17:14;;;;;;;12.70;4.63;;;9.10;99.90;;;;;;5095662;28;20063;-80
2021/10/23 09:19:47;;;;;;;9.68;4.85;;;9.20;99.90;;;;;;5094785;28;20066;-80
2021/10/23 09:22:32;;;;;;;9.77;5.05;;;9.20;99.90;;;;;;5096658;28;20114;-80
2021/10/23 09:25:36;;;;;;;17.13;4.63;;;9.40;99.90;;;;;;5094618;28;20032;-79
2021/10/23 09:28:09;;;;;;;13.52;4.93;;;9.50;99.90;;;;;;5096181;28;20031;-80
2021/10/23 09:30:36;;;;;;;13.45;5.50;;;9.50;99.90;;;;;;5095072;28;20042;-80
2021/10/23 09:33:08;;;;;;;9.95;4.95;;;9.60;99.90;;;;;;5095032;28;20024;-80
2021/10/23 09:35:43;;;;;;;12.68;5.20;;;9.70;99.90;;;;;;5094886;28;20059;-79
2021/10/23 09:38:10;;;;;;;12.85;5.18;;;9.80;99.90;;;;;;5095296;28;20074;-80
2021/10/23 09:40:38;;;;;;;10.52;5.18;;;9.80;99.90;;;;;;5096187;28;20472;-79
2021/10/23 09:43:22;;;;;;;13.75;5.20;;;9.90;99.90;;;;;;5095676;28;20095;-81
2021/10/23 09:46:06;;;;;;;13.05;5.68;;;9.90;99.90;;;;;;5095809;28;20047;-80
2021/10/23 09:48:38;;;;;;;14.20;5.95;;;10.00;99.90;;;;;;5094225;28;20024;-80
2021/10/23 09:51:19;;;;;;;14.80;6.07;;;10.00;99.90;;;;;;5094506;28;20028;-80
2021/10/23 09:53:45;;;;;;;13.75;5.93;;;10.10;99.90;;;;;;5094161;28;20081;-79
2021/10/23 09:56:14;;;;;;;15.05;5.18;;;10.10;99.90;;;;;;5094019;28;20392;-80
2021/10/23 09:59:10;;;;;;;12.73;5.25;;;10.10;99.90;;;;;;5096075;28;20498;-79
2021/10/23 10:01:44;;;;;;;12.25;5.32;;;10.20;99.90;;;;;;5095311;28;20016;-80
2021/10/23 10:04:12;;;;;;;10.93;6.03;;;10.20;99.90;;;;;;5095297;28;20073;-79
2021/10/23 10:06:42;;;;;;;12.38;5.40;;;10.20;99.90;;;;;;5096063;28;20099;-79
2021/10/23 10:09:19;;;;;;;17.48;5.13;;;10.20;99.90;;;;;;5077526;28;20491;-80
2021/10/23 10:11:48;;;;;;;14.93;6.15;;;10.30;99.90;;;;;;5096485;28;20116;-79
2021/10/23 10:14:14;;;;;;;;;;;10.30;99.90;;;;;;5095737;28;20020;-79
2021/10/23 10:16:53;;;;;;;11.80;5.30;;;10.40;99.90;;;;;;5095917;28;20391;-79
2021/10/23 10:19:19;;;;;;;12.85;5.72;;;10.40;99.90;;;;;;5077744;28;20028;-79
2021/10/23 10:21:46;;;;;;;15.50;5.57;;;10.50;99.90;;;;;;5077107;28;20473;-79
2021/10/23 10:24:23;;;;;;;14.02;6.00;;;10.50;99.90;;;;;;5076848;28;20477;-77
2021/10/23 10:27:11;;;;;;;16.98;5.68;;;10.50;99.90;;;;;;5076355;28;20560;-77
2021/10/23 10:29:44;;;;;;;16.75;5.97;;;10.50;99.90;;;;;;5094852;28;20381;-76
2021/10/23 10:42:52;;;;;;;10.00;4.68;;;10.90;99.90;;;;;;5094872;28;20031;-76
2021/10/23 10:45:43;;;;;;;15.27;5.68;;;11.00;99.90;;;;;;5075992;28;20107;-77
2021/10/23 10:48:25;;;;;;;10.80;3.75;;;11.00;99.90;;;;;;5075492;28;20115;-77
2021/10/23 10:50:58;;;;;;;12.20;4.32;;;11.10;99.90;;;;;;5093294;28;20059;-76
2021/10/23 10:53:25;;;;;;;11.13;4.18;;;11.10;99.90;;;;;;5093879;28;20018;-77
2021/10/23 10:55:54;;;;;;;9.90;3.67;;;11.20;99.90;;;;;;5093634;28;20078;-78
2021/10/23 10:58:38;;;;;;;11.13;3.97;;;11.20;99.90;;;;;;5075596;28;20020;-78
2021/10/23 11:01:08;;;;;;;12.30;4.88;;;11.30;99.90;;;;;;5093450;28;20069;-77
2021/10/23 11:03:38;;;;;;;6.82;3.50;;;11.30;99.90;;;;;;5093535;28;20040;-77
2021/10/23 11:09:12;;;;;;;8.85;3.83;;;11.30;99.90;;;;;;5093701;28;20039;-77
2021/10/23 11:12:03;;;;;;;11.32;4.32;;;11.30;99.90;;;;;;5093758;28;20507;-76
2021/10/23 11:14:28;;;;;;;8.07;4.15;;;11.30;99.90;;;;;;5085699;28;20048;-77
2021/10/23 11:19:25;;;;;;;8.95;4.22;;;11.40;99.90;;;;;;5093753;28;20020;-76
2021/10/23 11:21:51;;;;;;;12.73;3.88;;;11.40;99.90;;;;;;5093075;28;20024;-75
2021/10/23 11:24:17;;;;;;;10.00;3.85;;;11.50;99.90;;;;;;5093619;28;20122;-76
2021/10/23 11:26:56;;;;;;;12.57;3.53;;;11.50;99.90;;;;;;5093222;28;20048;-75
2021/10/23 11:29:22;;;;;;;7.93;4.43;;;11.50;99.90;;;;;;5091929;28;20024;-75
2021/10/23 11:31:49;;;;;;;11.95;2.90;;;11.60;99.90;;;;;;5093121;28;20028;-76
2021/10/23 11:34:47;;;;;;;7.32;3.75;;;11.70;99.90;;;;;;5091676;28;20385;-76
2021/10/23 11:37:13;;;;;;;12.73;3.15;;;11.70;99.90;;;;;;5072285;28;20044;-76
2021/10/23 11:39:41;;;;;;;14.48;3.92;;;11.70;99.90;;;;;;5094750;28;20091;-79
2021/10/23 11:42:31;;;;;;;7.75;3.70;;;11.80;99.90;;;;;;5101694;28;20038;-79
2021/10/23 11:44:58;;;;;;;8.43;3.00;;;11.80;99.90;;;;;;5082273;28;20028;-79
2021/10/23 11:47:29;;;;;;;7.65;2.20;;;11.90;99.90;;;;;;5100888;28;20112;-79
2021/10/23 11:49:57;;;;;;;7.32;2.88;;;11.90;99.90;;;;;;5082733;28;20485;-79
2021/10/23 11:52:31;;;;;;;8.52;3.80;;;11.90;99.90;;;;;;5082226;28;20027;-79
2021/10/23 11:54:57;;;;;;;12.63;2.78;;;12.00;99.90;;;;;;5081587;28;20024;-79
2021/10/23 11:57:36;;;;;;;8.30;3.83;;;12.00;99.90;;;;;;5081960;28;20017;-79
2021/10/23 12:00:03;;;;;;;8.98;2.70;;;12.00;99.90;;;;;;5099400;28;20393;-79
2021/10/23 12:02:48;;;;;;;6.32;3.13;;;12.10;99.90;;;;;;5085469;28;20016;-79
2021/10/23 12:05:17;;;;;;;9.00;2.90;;;12.10;99.90;;;;;;5096049;28;20476;-79
2021/10/23 12:07:43;;;;;;;10.35;2.33;;;12.10;99.90;;;;;;5064218;28;20020;-79
2021/10/23 12:10:08;;;;;;;6.88;3.03;;;12.00;99.90;;;;;;5064773;28;20040;-79
2021/10/23 12:12:34;;;;;;;9.88;2.38;;;12.10;99.90;;;;;;5064555;28;20119;-79
2021/10/23 12:15:14;;;;;;;10.68;2.47;;;12.00;99.90;;;;;;5064163;28;20020;-79
2021/10/23 12:17:40;;;;;;;8.10;2.67;;;12.10;99.90;;;;;;5071307;28;20027;-79
2021/10/23 12:20:15;;;;;;;9.13;3.15;;;12.30;99.90;;;;;;5102159;28;20024;-79
2021/10/23 12:22:41;;;;;;;5.10;1.90;;;12.00;99.90;;;;;;5102249;28;20016;-79
2021/10/23 12:25:11;;;;;;;6.72;2.33;;;12.00;99.90;;;;;;5103069;28;20113;-79
2021/10/23 12:27:37;;;;;;;7.55;2.40;;;12.00;99.90;;;;;;5100979;28;20031;-79
2021/10/23 12:30:13;;;;;;;7.18;2.00;;;12.00;99.90;;;;;;5101138;28;20016;-79
2021/10/23 12:32:44;;;;;;;6.03;2.03;;;12.00;99.90;;;;;;5102618;28;20500;-79
2021/10/23 12:35:20;;;;;;;7.15;2.92;;;12.00;99.90;;;;;;5102183;28;20021;-79
2021/10/23 12:37:58;;;;;;;10.52;2.33;;;12.10;99.90;;;;;;5101523;28;20020;-79
2021/10/23 12:40:32;;;;;;;8.85;2.03;;;12.10;99.90;;;;;;5097993;28;20103;-76
2021/10/23 12:43:08;;;;;;;7.03;2.70;;;12.10;99.90;;;;;;5094714;28;20046;-75
2021/10/23 12:45:39;;;;;;;7.38;2.10;;;12.10;99.90;;;;;;5094423;28;20024;-75
2021/10/23 12:48:08;;;;;;;5.68;1.90;;;12.10;99.90;;;;;;5094563;28;20059;-75
2021/10/23 12:50:35;;;;;;;4.73;1.80;;;12.10;99.90;;;;;;5095384;28;20028;-76
2021/10/23 12:53:01;;;;;;;6.72;1.58;;;12.10;99.90;;;;;;5096184;28;20652;-77
2021/10/23 12:55:27;;;;;;;9.65;2.85;;;12.10;99.90;;;;;;5095638;28;20028;-78
2021/10/23 12:57:53;;;;;;;9.25;1.48;;;12.10;99.90;;;;;;5095852;28;20432;-77
2021/10/23 13:00:19;;;;;;;6.88;2.00;;;12.20;99.90;;;;;;5095720;28;20532;-78
2021/10/23 13:02:45;;;;;;;5.40;1.73;;;12.20;99.90;;;;;;5077512;28;20381;-77
2021/10/23 13:05:12;;;;;;;6.85;2.55;;;12.20;99.90;;;;;;5077286;28;20063;-77
2021/10/23 13:07:37;;;;;;;7.03;2.50;;;12.20;99.90;;;;;;5095506;28;20158;-77
2021/10/23 13:10:05;;;;;;;8.65;2.40;;;12.20;99.90;;;;;;5096035;28;20058;-77
2021/10/23 13:12:30;;;;;;;8.23;1.80;;;12.20;99.90;;;;;;5076447;28;20548;-76